Aviation Digital Data Service (ADDS)

Output produced by METARs form (0745 UTC 28 September 2022)
found at http://www.aviationweather.gov/metar/data/
 
VTCC 280730Z 35007KT 310V030 9999 SCT035 33/22 Q1004 NOSIG
VTCC 280700Z 02008KT 330V130 9999 SCT035 33/22 Q1004 NOSIG
VTCC 280630Z 01007KT 300V080 9999 SCT035 33/23 Q1004 NOSIG
VTCC 280600Z 03009KT 010V070 9999 FEW035 32/22 Q1005 NOSIG
VTCC 280530Z 05009KT 020V080 9999 FEW035 32/22 Q1005 NOSIG
VTCC 280500Z 01005KT 320V080 9999 FEW035 31/23 Q1006 NOSIG
VTCC 280430Z VRB02KT 9999 FEW035 31/24 Q1007 NOSIG
VTCC 280400Z VRB02KT 9999 FEW035 30/24 Q1007 NOSIG
VTCC 280330Z VRB02KT 9999 FEW035 30/24 Q1007 NOSIG
VTCC 280300Z 02003KT 330V070 9999 SCT035 28/23 Q1008 NOSIG
VTCC 280230Z 33003KT 280V020 9999 SCT035 27/23 Q1008 NOSIG
VTCC 280200Z VRB01KT 9999 FEW035 27/23 Q1008 NOSIG
VTCC 280130Z VRB02KT 9999 FEW035 26/23 Q1008 NOSIG
VTCC 280100Z 15003KT 100V210 9999 FEW035 25/23 Q1008 NOSIG
VTCC 280030Z 07003KT 9999 FEW035 24/23 Q1007 NOSIG
VTCC 280000Z 00000KT 9999 FEW035 23/23 Q1007 NOSIG
VTCC 272330Z VRB02KT 9999 SCT035 22/22 Q1007 NOSIG
VTCC 272300Z 26003KT 9999 SCT035 23/// Q1007 NOSIG
VTCC 272230Z 00000KT 9999 SCT035 23/23 Q1007 NOSIG
VTCC 272200Z 00000KT 9999 SCT035 23/23 Q1007 NOSIG
VTCC 272130Z 32002KT 9999 SCT035 23/23 Q1006 NOSIG
VTCC 272100Z VRB01KT 9999 SCT035 23/23 Q1006 NOSIG
VTCC 272030Z VRB01KT 9999 SCT035 23/23 Q1006 NOSIG
VTCC 272000Z 27002KT 9999 SCT035 23/23 Q1007 NOSIG
VTCC 271930Z VRB01KT 9999 SCT035 23/23 Q1007 NOSIG
VTCC 271900Z 32001KT 9999 SCT035 23/23 Q1007 NOSIG
VTCC 271830Z 27003KT 9999 SCT035 24/24 Q1007 NOSIG
VTCC 271800Z 26002KT 9999 SCT035 24/24 Q1008 NOSIG
VTCC 271730Z 00000KT 9999 SCT035 24/24 Q1008 NOSIG
VTCC 271700Z 00000KT 9999 SCT035 24/24 Q1008 NOSIG
VTCC 271630Z VRB02KT 9999 SCT035 24/24 Q1009 NOSIG
VTCC 271600Z 33002KT 9999 SCT035 24/24 Q1009 NOSIG
VTCC 271530Z 00000KT 9999 SCT035 24/24 Q1009 NOSIG
VTCC 271500Z 27002KT 9999 SCT035 25/25 Q1009 NOSIG
VTCC 271430Z 30002KT 9999 SCT035 25/24 Q1009 NOSIG
VTCC 271400Z VRB01KT 9999 SCT035 26/23 Q1008 NOSIG
VTCC 271330Z 00000KT 9999 SCT035 26/24 Q1008 NOSIG
VTCC 271300Z 29003KT 9999 SCT035 26/25 Q1007 NOSIG
VTCC 271230Z 23003KT 190V280 9999 SCT035 27/24 Q1007 NOSIG
VTCC 271200Z VRB03KT 9999 SCT035 27/24 Q1007 NOSIG
VTCC 271130Z 29004KT 9999 SCT035 27/26 Q1006 NOSIG
VTCC 271100Z 17003KT 9999 SCT035 29/24 Q1006 NOSIG
VTCC 271030Z 17003KT 9999 SCT035 29/24 Q1006 NOSIG
VTCC 271000Z 15004KT 9999 SCT035 29/23 Q1005 NOSIG
VTCC 270930Z VRB02KT 9999 BKN035 29/24 Q1005 NOSIG
VTCC 270900Z 10004KT 9999 BKN035 28/25 Q1005 NOSIG
VTCC 270830Z 12006KT 090V160 9999 -SHRA FEW025CB SCT035 28/23 Q1006 TEMPO -TSRA
VTCC 270800Z 23005KT 150V320 9999 -SHRA FEW025CB SCT035 32/22 Q1006 TEMPO -TSRA
VTCC 270730Z VRB06KT 9999 VCSH SCT035 31/23 Q1006 NOSIG
VTCC 270700Z 26006KT 190V310 9999 SCT035 30/23 Q1007 NOSIG
TAF VTCC 280500Z 2806/2912 03005KT 9999 SCT035 
     TEMPO 2808/2814 -TSRA FEW025CB BKN035 
     BECMG 2810/2812 26005KT 
     BECMG 2815/2817 36005KT 
     TEMPO 2818/2824 -TSRA FEW025CB BKN035 
     TEMPO 2906/2912 -TSRA FEW025CB BKN035